Maria Noelle — WDD9564 — position and weather

sailwx.info

Track history (hours):
 
Tides and Currents Weather Stations Pressure Air Temp Water Temp Dewpoint Dewpoint Depression Visibility Wind Speed Wind Dir Waves Ship Positions

Maria Noelle

Owner: MUROS INC, POINT PLEASANT, NJ. More information available from US FCC via Universal Licensing System and Coast Guard Vessel Documentation Center.

Last reported at 2016-Apr-28 02:33 UTC. Time now 2016-May-02 23:12 UTC.
Position N 39°32' W 073°16'.

Length 26 m.

Type: Fishing. MMSI: 367313170.

Date/timePositionNaut miles runAvg speedWind from/ knotsBaromVisibWave heightAir tempDewpointWater temp
2016-Apr-28 02:33N 39°32' W 073°16'9 8.1
2016-Apr-28 01:24N 39°38' W 073°25'8 8.1
2016-Apr-28 00:26N 39°43' W 073°33'21 0.7
2016-Apr-26 16:33N 39°59' W 073°52'10 0.6
2016-Apr-25 23:07N 39°52' W 073°42'12 2.5
2016-Apr-25 18:31N 39°60' W 073°54'8 8.1
2016-Apr-25 17:32N 39°54' W 073°47'49 6.7
2016-Apr-25 10:15N 39°21' W 073°00'2 2.8
2016-Apr-25 09:31N 39°19' W 073°02'2 1.2
2016-Apr-25 08:11N 39°20' W 073°03'2 3.1
2016-Apr-25 07:33N 39°20' W 073°05'6 5.5
2016-Apr-25 06:32N 39°23' W 073°12'8 8.6
2016-Apr-25 05:33N 39°29' W 073°19'9 8.6
2016-Apr-25 04:33N 39°35' W 073°26'9 8.8
2016-Apr-25 03:33N 39°42' W 073°34'9 8.2
2016-Apr-25 02:26N 39°49' W 073°42'7 8.2
2016-Apr-25 01:33N 39°54' W 073°48'8 7.9
2016-Apr-25 00:30N 40°01' W 073°55'  
2016-Apr-21 17:08N 40°03' W 073°58'5 8.3
2016-Apr-21 16:33N 39°60' W 073°54'8 8.0
2016-Apr-21 15:32N 39°54' W 073°46'47 3.8
2016-Apr-21 03:11N 39°21' W 073°03'5 7.5
2016-Apr-21 02:31N 39°25' W 073°07'18 8.3
2016-Apr-21 00:22N 39°37' W 073°24'7 8.1
2016-Apr-20 23:32N 39°42' W 073°30'8 8.0
2016-Apr-20 22:32N 39°47' W 073°38'8 7.8
2016-Apr-20 21:33N 39°53' W 073°45'8 7.9
2016-Apr-20 20:33N 39°58' W 073°52'10 5.1
2016-Apr-20 18:33N 40°06' W 074°01'8 8.1
2016-Apr-20 17:33N 39°60' W 073°54'8 8.3
2016-Apr-20 16:33N 39°54' W 073°46'3 0.1
2016-Apr-19 22:33N 39°56' W 073°45'8 7.9
2016-Apr-19 21:33N 40°01' W 073°53'55 5.3
2016-Apr-19 11:09N 39°29' W 072°55'4 0.8
2016-Apr-19 06:33N 39°25' W 072°55'37 7.3
2016-Apr-19 01:26N 39°48' W 073°34'8 8.4
2016-Apr-19 00:32N 39°53' W 073°41'20 6.1
2016-Apr-18 21:15N 40°06' W 074°01'6 8.4
2016-Apr-18 20:32N 40°02' W 073°55'8 8.5
2016-Apr-18 19:33N 39°56' W 073°47'9 8.5
2016-Apr-18 18:30N 39°51' W 073°38'  
Track history (hours):
 
Tides and Currents Weather Stations Pressure Air Temp Water Temp Dewpoint Dewpoint Depression Visibility Wind Speed Wind Dir Waves Ship Positions

Maria Noelle

Owner: MUROS INC, POINT PLEASANT, NJ. More information available from US FCC via Universal Licensing System and Coast Guard Vessel Documentation Center.

Last reported at 2016-Apr-28 02:33 UTC. Time now 2016-May-02 23:12 UTC.
Position N 39°32' W 073°16'.

Length 26 m.

Type: Fishing. MMSI: 367313170.

Date/timePositionNaut miles runAvg speedWind from/ knotsBaromVisibWave heightAir tempDewpointWater temp
2016-Apr-28 02:33N 39°32' W 073°16'9 8.1
2016-Apr-28 01:24N 39°38' W 073°25'8 8.1
2016-Apr-28 00:26N 39°43' W 073°33'21 0.7
2016-Apr-26 16:33N 39°59' W 073°52'10 0.6
2016-Apr-25 23:07N 39°52' W 073°42'12 2.5
2016-Apr-25 18:31N 39°60' W 073°54'8 8.1
2016-Apr-25 17:32N 39°54' W 073°47'49 6.7
2016-Apr-25 10:15N 39°21' W 073°00'2 2.8
2016-Apr-25 09:31N 39°19' W 073°02'2 1.2
2016-Apr-25 08:11N 39°20' W 073°03'2 3.1
2016-Apr-25 07:33N 39°20' W 073°05'6 5.5
2016-Apr-25 06:32N 39°23' W 073°12'8 8.6
2016-Apr-25 05:33N 39°29' W 073°19'9 8.6
2016-Apr-25 04:33N 39°35' W 073°26'9 8.8
2016-Apr-25 03:33N 39°42' W 073°34'9 8.2
2016-Apr-25 02:26N 39°49' W 073°42'7 8.2
2016-Apr-25 01:33N 39°54' W 073°48'8 7.9
2016-Apr-25 00:30N 40°01' W 073°55'  
2016-Apr-21 17:08N 40°03' W 073°58'5 8.3
2016-Apr-21 16:33N 39°60' W 073°54'8 8.0
2016-Apr-21 15:32N 39°54' W 073°46'47 3.8
2016-Apr-21 03:11N 39°21' W 073°03'5 7.5
2016-Apr-21 02:31N 39°25' W 073°07'18 8.3
2016-Apr-21 00:22N 39°37' W 073°24'7 8.1
2016-Apr-20 23:32N 39°42' W 073°30'8 8.0
2016-Apr-20 22:32N 39°47' W 073°38'8 7.8
2016-Apr-20 21:33N 39°53' W 073°45'8 7.9
2016-Apr-20 20:33N 39°58' W 073°52'10 5.1
2016-Apr-20 18:33N 40°06' W 074°01'8 8.1
2016-Apr-20 17:33N 39°60' W 073°54'8 8.3
2016-Apr-20 16:33N 39°54' W 073°46'3 0.1
2016-Apr-19 22:33N 39°56' W 073°45'8 7.9
2016-Apr-19 21:33N 40°01' W 073°53'55 5.3
2016-Apr-19 11:09N 39°29' W 072°55'4 0.8
2016-Apr-19 06:33N 39°25' W 072°55'37 7.3
2016-Apr-19 01:26N 39°48' W 073°34'8 8.4
2016-Apr-19 00:32N 39°53' W 073°41'20 6.1
2016-Apr-18 21:15N 40°06' W 074°01'6 8.4
2016-Apr-18 20:32N 40°02' W 073°55'8 8.5
2016-Apr-18 19:33N 39°56' W 073°47'9 8.5
2016-Apr-18 18:30N 39°51' W 073°38'  

Dump ship's entire track history